createdAt,value
2023-01-29T00:00:09.528Z,77.50
2023-01-29T00:02:39.230Z,76.75
2023-01-29T00:05:25.531Z,76.62
2023-01-29T00:07:53.326Z,76.52
2023-01-29T00:10:19.855Z,76.37
2023-01-29T00:12:46.371Z,76.95
2023-01-29T00:15:12.942Z,76.31
2023-01-29T00:17:42.315Z,77.16
2023-01-29T00:20:09.583Z,77.04
2023-01-29T00:22:36.057Z,76.99
2023-01-29T00:25:02.777Z,77.04
2023-01-29T00:27:29.690Z,77.38
2023-01-29T00:29:56.192Z,76.90
2023-01-29T00:32:22.708Z,77.00
2023-01-29T00:34:49.186Z,77.30
2023-01-29T00:37:15.664Z,77.32
2023-01-29T00:39:48.107Z,76.75
2023-01-29T00:42:16.080Z,77.22
2023-01-29T00:44:43.715Z,77.09
2023-01-29T00:47:10.208Z,77.01
2023-01-29T00:49:36.704Z,76.94
2023-01-29T00:52:06.139Z,77.35
2023-01-29T00:54:33.236Z,76.90
2023-01-29T00:57:00.357Z,77.15
2023-01-29T00:59:26.991Z,76.53
2023-01-29T01:01:53.506Z,76.69
2023-01-29T01:04:20.059Z,76.85
2023-01-29T01:06:46.628Z,77.18
2023-01-29T01:09:13.111Z,76.14
2023-01-29T01:11:39.640Z,76.21
2023-01-29T01:14:06.135Z,76.57
2023-01-29T01:16:32.679Z,76.52
2023-01-29T01:18:59.415Z,76.87
2023-01-29T01:21:26.004Z,76.32
2023-01-29T01:23:52.497Z,76.04
2023-01-29T01:26:22.001Z,76.09
2023-01-29T01:28:48.712Z,75.70
2023-01-29T01:31:15.210Z,75.92
2023-01-29T01:33:41.848Z,76.36
2023-01-29T01:36:08.512Z,76.34
2023-01-29T01:38:36.655Z,75.86
2023-01-29T01:41:03.155Z,76.01
2023-01-29T01:43:56.502Z,76.48
2023-01-29T01:46:35.310Z,76.44
2023-01-29T01:49:07.303Z,77.07
2023-01-29T01:51:37.479Z,77.11
2023-01-29T01:54:07.955Z,77.21
2023-01-29T01:56:41.015Z,76.71
2023-01-29T01:59:10.648Z,77.06
2023-01-29T02:01:37.578Z,77.55
2023-01-29T02:04:09.900Z,77.13
2023-01-29T02:06:39.598Z,76.90
2023-01-29T02:09:17.542Z,76.93
2023-01-29T02:11:44.034Z,77.23
2023-01-29T02:14:10.920Z,76.93
2023-01-29T02:16:37.637Z,77.19
2023-01-29T02:19:17.288Z,76.89
2023-01-29T02:22:08.044Z,77.32
2023-01-29T02:24:53.181Z,77.68
2023-01-29T02:27:22.169Z,77.50
2023-01-29T02:30:05.869Z,77.98
2023-01-29T02:32:56.907Z,77.64
2023-01-29T02:35:44.194Z,77.08
2023-01-29T02:38:35.160Z,77.01
2023-01-29T02:41:10.597Z,76.49
2023-01-29T02:43:50.792Z,77.17
2023-01-29T02:46:47.082Z,76.46
2023-01-29T02:49:23.936Z,77.07
2023-01-29T02:52:10.032Z,77.75
2023-01-29T02:54:56.845Z,76.60
2023-01-29T02:57:27.002Z,77.03
2023-01-29T03:00:04.380Z,76.29
2023-01-29T03:02:55.586Z,75.71
2023-01-29T03:05:28.888Z,75.74
2023-01-29T03:07:59.699Z,75.14
2023-01-29T03:10:34.068Z,75.08
2023-01-29T03:13:06.595Z,75.29
2023-01-29T03:15:39.215Z,75.65
2023-01-29T03:18:12.620Z,75.04
2023-01-29T03:20:50.616Z,75.05
2023-01-29T03:23:29.471Z,74.60
2023-01-29T03:25:58.865Z,74.50
2023-01-29T03:28:26.116Z,74.74
2023-01-29T03:30:55.182Z,74.53
2023-01-29T03:33:24.084Z,74.02
2023-01-29T03:35:55.375Z,74.02
2023-01-29T03:38:21.930Z,73.98
2023-01-29T03:40:57.102Z,73.77
2023-01-29T03:43:34.100Z,74.41
2023-01-29T03:46:08.278Z,73.86
2023-01-29T03:48:41.899Z,74.09
2023-01-29T03:51:14.520Z,73.17
2023-01-29T03:54:02.042Z,73.58
2023-01-29T03:56:35.116Z,72.84
2023-01-29T03:59:16.169Z,72.01
2023-01-29T04:01:49.010Z,72.58
2023-01-29T04:04:22.726Z,73.05
2023-01-29T04:06:51.144Z,73.17
2023-01-29T04:09:20.589Z,73.09
2023-01-29T04:11:50.615Z,72.32
2023-01-29T04:14:17.656Z,73.24
2023-01-29T04:16:52.521Z,73.43
2023-01-29T04:19:19.052Z,73.59
2023-01-29T04:21:48.735Z,72.34
2023-01-29T04:24:15.524Z,71.19
2023-01-29T04:26:42.026Z,71.97
2023-01-29T04:29:33.494Z,72.27
2023-01-29T04:32:11.357Z,72.35
2023-01-29T04:34:56.713Z,72.08
2023-01-29T04:37:30.022Z,72.76
2023-01-29T04:40:15.476Z,72.66
2023-01-29T04:43:01.852Z,73.05
2023-01-29T04:45:34.725Z,73.45
2023-01-29T04:48:27.943Z,73.00
2023-01-29T04:51:13.103Z,72.59
2023-01-29T04:54:25.984Z,72.60
2023-01-29T04:56:52.376Z,73.10
2023-01-29T04:59:29.519Z,73.18
2023-01-29T05:01:56.318Z,73.38
2023-01-29T05:04:23.775Z,73.80
2023-01-29T05:06:52.015Z,73.91
2023-01-29T05:09:19.790Z,73.76
2023-01-29T05:11:47.750Z,72.72
2023-01-29T05:14:17.234Z,74.00
2023-01-29T05:16:46.382Z,73.99
2023-01-29T05:19:14.885Z,74.15
2023-01-29T05:21:44.582Z,73.51
2023-01-29T05:24:17.019Z,73.27
2023-01-29T05:26:45.947Z,72.87
2023-01-29T05:29:12.455Z,72.66
2023-01-29T05:31:38.948Z,72.75
2023-01-29T05:34:05.597Z,72.70
2023-01-29T05:36:32.056Z,73.02
2023-01-29T05:38:58.573Z,72.69
2023-01-29T05:41:25.308Z,72.64
2023-01-29T05:43:51.838Z,73.45
2023-01-29T05:46:18.336Z,73.14
2023-01-29T05:48:44.931Z,72.99
2023-01-29T05:51:11.451Z,72.59
2023-01-29T05:53:38.015Z,72.64
2023-01-29T05:56:05.520Z,72.29
2023-01-29T05:58:32.906Z,71.83
2023-01-29T06:01:17.715Z,72.29
2023-01-29T06:03:44.597Z,72.12
2023-01-29T06:06:11.477Z,72.13
2023-01-29T06:08:38.425Z,72.94
2023-01-29T06:11:07.472Z,72.24
2023-01-29T06:13:34.451Z,71.97
2023-01-29T06:16:01.208Z,72.08
2023-01-29T06:18:27.663Z,72.52
2023-01-29T06:20:54.137Z,72.50
2023-01-29T06:23:21.104Z,72.19
2023-01-29T06:25:47.755Z,71.47
2023-01-29T06:28:14.245Z,71.32
2023-01-29T06:30:40.827Z,71.25
2023-01-29T06:33:07.335Z,71.33
2023-01-29T06:35:33.821Z,70.26
2023-01-29T06:38:00.352Z,70.42
2023-01-29T06:40:26.869Z,70.19
2023-01-29T06:42:53.328Z,70.72
2023-01-29T06:45:19.890Z,70.41
2023-01-29T06:47:46.397Z,70.12
2023-01-29T06:50:12.958Z,70.48
2023-01-29T06:52:39.515Z,69.54
2023-01-29T06:55:06.433Z,69.71
2023-01-29T06:57:32.929Z,69.57
2023-01-29T06:59:59.397Z,69.17
2023-01-29T07:02:25.863Z,69.16
2023-01-29T07:04:52.412Z,69.68
2023-01-29T07:07:18.911Z,70.36
2023-01-29T07:09:45.404Z,69.96
2023-01-29T07:12:11.994Z,69.85
2023-01-29T07:14:38.486Z,68.88
2023-01-29T07:17:04.938Z,67.85
2023-01-29T07:19:31.409Z,68.80
2023-01-29T07:21:57.887Z,68.78
2023-01-29T07:24:24.541Z,68.13
2023-01-29T07:26:51.038Z,67.44
2023-01-29T07:29:17.488Z,68.54
2023-01-29T07:31:43.995Z,68.21
2023-01-29T07:34:10.513Z,67.88
2023-01-29T07:36:36.972Z,66.77
2023-01-29T07:39:03.573Z,66.75
2023-01-29T07:41:30.045Z,66.45
2023-01-29T07:43:56.503Z,65.53
2023-01-29T07:46:22.973Z,65.28
2023-01-29T07:48:49.588Z,66.17
2023-01-29T07:51:16.104Z,66.23
2023-01-29T07:53:42.587Z,67.86
2023-01-29T07:56:09.121Z,67.78
2023-01-29T07:58:36.754Z,66.70
2023-01-29T08:01:07.119Z,66.56
2023-01-29T08:03:33.657Z,66.25
2023-01-29T08:06:00.172Z,65.78
2023-01-29T08:08:26.655Z,64.69
2023-01-29T08:10:53.115Z,64.72
2023-01-29T08:13:19.563Z,65.57
2023-01-29T08:15:46.136Z,64.92
2023-01-29T08:18:15.177Z,64.67
2023-01-29T08:20:41.627Z,64.11
2023-01-29T08:23:13.941Z,62.26
2023-01-29T08:25:40.685Z,61.96
2023-01-29T08:28:07.428Z,61.41
2023-01-29T08:30:34.395Z,60.08
2023-01-29T08:33:01.510Z,59.43
2023-01-29T08:35:28.093Z,59.07
2023-01-29T08:37:55.521Z,58.53
2023-01-29T08:40:22.891Z,58.47
2023-01-29T08:42:49.667Z,59.46
2023-01-29T08:45:16.461Z,59.73
2023-01-29T08:47:49.888Z,58.88
2023-01-29T08:50:17.777Z,58.04
2023-01-29T08:52:45.150Z,58.64
2023-01-29T08:55:12.399Z,57.65
2023-01-29T08:57:40.105Z,57.04
2023-01-29T09:00:07.781Z,56.64
2023-01-29T09:02:34.282Z,56.82
2023-01-29T09:05:00.821Z,56.43
2023-01-29T09:07:29.967Z,56.32
2023-01-29T09:09:56.652Z,56.19
2023-01-29T09:12:23.322Z,55.80
2023-01-29T09:14:49.825Z,55.24
2023-01-29T09:17:16.284Z,55.80
2023-01-29T09:19:43.051Z,55.70
2023-01-29T09:22:11.628Z,55.17
2023-01-29T09:24:38.426Z,54.96
2023-01-29T09:27:05.040Z,55.09
2023-01-29T09:29:33.050Z,55.00
2023-01-29T09:32:00.663Z,54.94
2023-01-29T09:34:27.161Z,53.73
2023-01-29T09:36:53.611Z,53.24
2023-01-29T09:39:22.176Z,53.24
2023-01-29T09:41:54.609Z,52.86
2023-01-29T09:44:27.504Z,52.88
2023-01-29T09:46:54.976Z,52.54
2023-01-29T09:49:24.728Z,51.91
2023-01-29T09:51:58.920Z,52.20
2023-01-29T09:55:02.509Z,51.25
2023-01-29T09:57:37.922Z,50.92
2023-01-29T10:00:04.975Z,50.52
2023-01-29T10:02:48.564Z,50.81
2023-01-29T10:05:21.656Z,51.52
2023-01-29T10:08:03.777Z,52.78
2023-01-29T10:10:30.264Z,52.16
2023-01-29T10:13:21.326Z,52.76
2023-01-29T10:16:00.385Z,52.87
2023-01-29T10:18:41.812Z,52.72
2023-01-29T10:21:41.908Z,53.29
2023-01-29T10:24:59.807Z,52.86
2023-01-29T10:27:34.688Z,54.38
2023-01-29T10:30:03.385Z,54.87
2023-01-29T10:32:31.043Z,54.35
2023-01-29T10:35:03.547Z,53.93
2023-01-29T10:37:43.308Z,54.17
2023-01-29T10:40:34.065Z,54.16
2023-01-29T10:43:18.001Z,53.29
2023-01-29T10:46:03.809Z,53.83
2023-01-29T10:48:30.201Z,53.15
2023-01-29T10:51:25.944Z,53.98
2023-01-29T10:54:02.436Z,53.46
2023-01-29T10:56:44.309Z,53.20
2023-01-29T10:59:16.874Z,52.82
2023-01-29T11:01:44.532Z,52.50
2023-01-29T11:04:12.742Z,52.54
2023-01-29T11:06:39.238Z,53.19
2023-01-29T11:12:16.236Z,52.72
2023-01-29T11:14:49.100Z,52.43
2023-01-29T11:17:21.420Z,53.11
2023-01-29T11:19:49.997Z,53.64
2023-01-29T11:22:20.216Z,52.27
2023-01-29T11:24:47.459Z,52.64
2023-01-29T11:27:26.194Z,52.57
2023-01-29T11:29:53.426Z,51.91
2023-01-29T11:32:22.903Z,51.71
2023-01-29T11:35:04.965Z,51.85
2023-01-29T11:37:33.752Z,51.47
2023-01-29T11:40:00.271Z,51.14
2023-01-29T11:42:31.119Z,50.60
2023-01-29T11:44:57.800Z,49.80
2023-01-29T11:47:29.229Z,50.25
2023-01-29T11:49:58.662Z,50.45
2023-01-29T11:52:39.761Z,49.40
2023-01-29T11:55:17.506Z,49.69
2023-01-29T11:57:46.928Z,49.90
2023-01-29T12:00:23.915Z,49.99
2023-01-29T12:02:54.887Z,49.34
2023-01-29T12:05:23.646Z,49.91
2023-01-29T12:07:52.403Z,49.92
2023-01-29T12:10:34.167Z,49.39
2023-01-29T12:13:09.579Z,49.64
2023-01-29T12:15:40.432Z,50.30
2023-01-29T12:18:32.005Z,49.18
2023-01-29T12:21:02.365Z,49.77
2023-01-29T12:23:48.973Z,50.32
2023-01-29T12:26:22.141Z,49.27
2023-01-29T12:29:00.194Z,49.35
2023-01-29T12:31:38.480Z,48.89
2023-01-29T12:34:21.403Z,48.07
2023-01-29T12:36:55.604Z,47.89
2023-01-29T12:39:22.470Z,48.42
2023-01-29T12:41:59.988Z,48.62
2023-01-29T12:44:42.491Z,48.93
2023-01-29T12:47:17.121Z,47.93
2023-01-29T12:49:46.650Z,47.68
2023-01-29T12:52:23.852Z,47.58
2023-01-29T12:54:59.265Z,47.05
2023-01-29T12:57:40.320Z,47.35
2023-01-29T13:00:20.543Z,47.20
2023-01-29T13:02:51.254Z,45.83
2023-01-29T13:05:26.265Z,46.13
2023-01-29T13:07:58.017Z,46.44
2023-01-29T13:10:32.701Z,45.62
2023-01-29T13:13:05.025Z,46.72
2023-01-29T13:15:36.529Z,45.84
2023-01-29T13:18:31.273Z,46.45
2023-01-29T13:21:01.168Z,46.79
2023-01-29T13:23:37.112Z,46.95
2023-01-29T13:26:04.262Z,46.81
2023-01-29T13:28:30.744Z,47.05
2023-01-29T13:31:29.722Z,48.03
2023-01-29T13:34:04.384Z,48.53
2023-01-29T13:36:31.348Z,48.79
2023-01-29T13:42:16.077Z,48.59
2023-01-29T13:44:47.920Z,48.80
2023-01-29T13:47:23.720Z,49.00
2023-01-29T13:49:59.072Z,48.84
2023-01-29T13:52:41.776Z,47.10
2023-01-29T13:55:32.547Z,46.99
2023-01-29T13:58:06.123Z,48.02
2023-01-29T14:00:35.561Z,47.94
2023-01-29T14:03:01.981Z,49.01
2023-01-29T14:05:31.637Z,48.26
2023-01-29T14:08:14.142Z,47.38
2023-01-29T14:10:43.896Z,47.08
2023-01-29T14:13:17.165Z,47.66
2023-01-29T14:15:45.184Z,48.13
2023-01-29T14:18:16.258Z,48.31
2023-01-29T14:21:02.548Z,49.88
2023-01-29T14:23:47.004Z,49.45
2023-01-29T14:26:26.244Z,48.90
2023-01-29T14:29:06.535Z,50.19
2023-01-29T14:31:47.708Z,48.98
2023-01-29T14:34:23.536Z,50.14
2023-01-29T14:36:53.488Z,49.20
2023-01-29T14:39:36.988Z,49.36
2023-01-29T14:42:13.650Z,49.72
2023-01-29T14:44:46.246Z,50.06
2023-01-29T14:47:38.739Z,50.61
2023-01-29T14:50:29.740Z,50.19
2023-01-29T14:53:01.915Z,49.95
2023-01-29T14:55:38.056Z,51.15
2023-01-29T14:58:04.941Z,52.47
2023-01-29T15:00:35.004Z,52.97
2023-01-29T15:03:02.828Z,53.70
2023-01-29T15:05:36.426Z,54.80
2023-01-29T15:08:23.322Z,54.88
2023-01-29T15:10:54.698Z,54.35
2023-01-29T15:13:35.831Z,53.56
2023-01-29T15:16:13.422Z,54.40
2023-01-29T15:18:43.514Z,53.20
2023-01-29T15:21:15.075Z,53.38
2023-01-29T15:23:42.570Z,52.63
2023-01-29T15:26:17.420Z,51.05
2023-01-29T15:28:47.209Z,51.07
2023-01-29T15:31:18.557Z,51.08
2023-01-29T15:33:47.165Z,50.88
2023-01-29T15:36:21.841Z,50.07
2023-01-29T15:38:48.623Z,51.14
2023-01-29T15:41:18.933Z,50.88
2023-01-29T15:43:50.879Z,50.77
2023-01-29T15:46:33.706Z,49.74
2023-01-29T15:49:09.536Z,50.53
2023-01-29T15:51:39.465Z,51.04
2023-01-29T15:54:16.894Z,51.05
2023-01-29T15:56:47.822Z,52.15
2023-01-29T15:59:22.561Z,51.82
2023-01-29T16:01:53.199Z,51.14
2023-01-29T16:04:30.530Z,51.68
2023-01-29T16:06:58.249Z,52.87
2023-01-29T16:09:26.289Z,52.68
2023-01-29T16:11:54.438Z,53.36
2023-01-29T16:14:23.265Z,52.74
2023-01-29T16:16:50.123Z,52.87
2023-01-29T16:19:28.837Z,53.99
2023-01-29T16:22:07.167Z,55.31
2023-01-29T16:24:36.278Z,56.49
2023-01-29T16:27:10.899Z,56.81
2023-01-29T16:29:37.533Z,56.42
2023-01-29T16:32:04.924Z,56.00
2023-01-29T16:34:35.069Z,55.12
2023-01-29T16:37:04.430Z,54.17
2023-01-29T16:39:37.429Z,53.72
2023-01-29T16:42:10.096Z,54.68
2023-01-29T16:44:37.978Z,54.53
2023-01-29T16:47:16.006Z,54.13
2023-01-29T16:49:45.734Z,54.59
2023-01-29T16:52:28.712Z,54.45
2023-01-29T16:55:13.536Z,54.25
2023-01-29T16:57:40.549Z,54.67
2023-01-29T17:00:13.260Z,55.28
2023-01-29T17:02:40.003Z,54.93
2023-01-29T17:05:10.014Z,54.77
2023-01-29T17:07:37.033Z,54.77
2023-01-29T17:10:06.300Z,55.10
2023-01-29T17:12:33.653Z,55.57
2023-01-29T17:15:20.028Z,55.39
2023-01-29T17:17:48.836Z,56.22
2023-01-29T17:20:17.092Z,56.15
2023-01-29T17:22:44.041Z,56.10
2023-01-29T17:25:15.386Z,56.36
2023-01-29T17:27:43.798Z,57.33
2023-01-29T17:30:15.466Z,57.15
2023-01-29T17:32:43.602Z,57.18
2023-01-29T17:35:16.156Z,56.75
2023-01-29T17:37:43.456Z,56.89
2023-01-29T17:40:17.266Z,57.44
2023-01-29T17:42:43.983Z,58.72
2023-01-29T17:45:10.783Z,59.64
2023-01-29T17:47:37.279Z,59.20
2023-01-29T17:50:16.498Z,59.35
2023-01-29T17:52:43.043Z,59.19
2023-01-29T17:55:09.782Z,59.05
2023-01-29T17:57:36.423Z,59.14
2023-01-29T18:00:03.966Z,58.97
2023-01-29T18:02:30.541Z,59.75
2023-01-29T18:04:57.073Z,59.07
2023-01-29T18:07:23.703Z,59.25
2023-01-29T18:09:50.481Z,59.87
2023-01-29T18:12:17.096Z,60.04
2023-01-29T18:14:44.306Z,59.98
2023-01-29T18:17:10.906Z,60.11
2023-01-29T18:19:37.452Z,60.14
2023-01-29T18:22:04.041Z,59.61
2023-01-29T18:24:30.603Z,59.80
2023-01-29T18:26:57.208Z,59.76
2023-01-29T18:29:23.964Z,59.71
2023-01-29T18:31:50.762Z,60.03
2023-01-29T18:34:18.451Z,59.86
2023-01-29T18:36:44.910Z,60.06
2023-01-29T18:39:11.874Z,60.94
2023-01-29T18:41:38.930Z,61.06
2023-01-29T18:44:05.559Z,62.40
2023-01-29T18:46:32.272Z,61.79
2023-01-29T18:48:59.117Z,63.63
2023-01-29T18:51:26.160Z,63.40
2023-01-29T18:53:53.070Z,64.90
2023-01-29T18:56:19.821Z,64.09
2023-01-29T18:58:51.991Z,64.31
2023-01-29T19:01:19.854Z,63.48
2023-01-29T19:03:46.830Z,63.77
2023-01-29T19:06:13.340Z,64.15
2023-01-29T19:08:40.759Z,65.17
2023-01-29T19:11:07.405Z,65.01
2023-01-29T19:13:35.507Z,64.89
2023-01-29T19:16:27.602Z,65.31
2023-01-29T19:18:55.127Z,64.61
2023-01-29T19:21:22.389Z,65.24
2023-01-29T19:23:49.176Z,63.57
2023-01-29T19:26:17.715Z,64.03
2023-01-29T19:28:47.055Z,63.86
2023-01-29T19:31:14.896Z,63.05
2023-01-29T19:33:41.474Z,63.39
2023-01-29T19:36:08.869Z,63.70
2023-01-29T19:38:35.511Z,63.74
2023-01-29T19:41:02.263Z,64.25
2023-01-29T19:43:29.803Z,64.90
2023-01-29T19:46:00.512Z,65.19
2023-01-29T19:48:27.590Z,65.47
2023-01-29T19:50:59.083Z,65.72
2023-01-29T19:53:27.903Z,66.37
2023-01-29T19:56:00.211Z,66.05
2023-01-29T19:58:26.899Z,65.84
2023-01-29T20:01:06.034Z,66.18
2023-01-29T20:03:33.089Z,66.44
2023-01-29T20:06:04.806Z,66.03
2023-01-29T20:08:32.047Z,65.84
2023-01-29T20:10:59.156Z,65.30
2023-01-29T20:13:25.878Z,65.68
2023-01-29T20:15:52.507Z,65.82
2023-01-29T20:18:19.586Z,65.37
2023-01-29T20:20:48.214Z,66.02
2023-01-29T20:23:22.320Z,66.42
2023-01-29T20:25:59.417Z,65.79
2023-01-29T20:28:26.018Z,66.66
2023-01-29T20:30:53.062Z,66.96
2023-01-29T20:33:19.693Z,67.18
2023-01-29T20:35:46.228Z,67.59
2023-01-29T20:38:12.781Z,67.80
2023-01-29T20:40:39.351Z,67.10
2023-01-29T20:43:05.983Z,66.72
2023-01-29T20:45:33.037Z,66.74
2023-01-29T20:47:59.643Z,66.94
2023-01-29T20:50:26.124Z,66.27
2023-01-29T20:52:52.675Z,66.99
2023-01-29T20:55:19.286Z,66.83
2023-01-29T20:57:45.846Z,66.93
2023-01-29T21:00:33.193Z,67.25
2023-01-29T21:03:00.459Z,67.35
2023-01-29T21:05:27.326Z,66.90
2023-01-29T21:07:56.793Z,67.13
2023-01-29T21:10:23.845Z,67.72
2023-01-29T21:12:50.345Z,67.43
2023-01-29T21:15:16.833Z,67.03
2023-01-29T21:17:47.581Z,66.80
2023-01-29T21:20:16.064Z,67.39
2023-01-29T21:22:42.908Z,66.66
2023-01-29T21:25:10.075Z,67.25
2023-01-29T21:27:36.618Z,67.91
2023-01-29T21:30:03.985Z,69.30
2023-01-29T21:32:31.029Z,69.75
2023-01-29T21:34:57.537Z,69.16
2023-01-29T21:37:24.059Z,68.75
2023-01-29T21:39:50.574Z,68.51
2023-01-29T21:42:17.177Z,68.74
2023-01-29T21:44:43.725Z,69.46
2023-01-29T21:47:10.839Z,69.17
2023-01-29T21:49:46.839Z,69.73
2023-01-29T21:52:13.854Z,68.82
2023-01-29T21:54:41.354Z,69.95
2023-01-29T21:57:12.344Z,69.13
2023-01-29T21:59:39.380Z,68.96
2023-01-29T22:02:06.354Z,68.99
2023-01-29T22:04:33.459Z,68.60
2023-01-29T22:06:59.973Z,68.76
2023-01-29T22:09:27.260Z,68.66
2023-01-29T22:11:55.174Z,67.70
2023-01-29T22:14:21.941Z,67.76
2023-01-29T22:16:50.168Z,68.00
2023-01-29T22:19:16.670Z,68.40
2023-01-29T22:21:45.922Z,68.46
2023-01-29T22:24:12.833Z,67.97
2023-01-29T22:26:39.366Z,68.83
2023-01-29T22:29:05.854Z,68.04
2023-01-29T22:31:35.088Z,68.42
2023-01-29T22:34:03.572Z,68.98
2023-01-29T22:36:30.597Z,69.00
2023-01-29T22:38:57.463Z,69.09
2023-01-29T22:41:23.988Z,68.78
2023-01-29T22:43:50.937Z,68.81
2023-01-29T22:46:17.628Z,68.27
2023-01-29T22:48:44.497Z,67.17
2023-01-29T22:51:11.002Z,66.87
2023-01-29T22:53:39.335Z,67.25
2023-01-29T22:56:06.744Z,66.30
2023-01-29T22:58:33.705Z,66.63
2023-01-29T23:01:00.394Z,65.29
2023-01-29T23:03:26.896Z,65.00
2023-01-29T23:05:53.522Z,64.39
2023-01-29T23:08:20.019Z,64.33
2023-01-29T23:10:47.087Z,64.44
2023-01-29T23:13:13.701Z,64.89
2023-01-29T23:15:40.356Z,64.69
2023-01-29T23:18:06.884Z,65.45
2023-01-29T23:20:33.335Z,65.39
2023-01-29T23:22:59.971Z,64.00
2023-01-29T23:25:26.608Z,64.39
2023-01-29T23:27:56.662Z,64.78
2023-01-29T23:30:23.303Z,63.96
2023-01-29T23:32:50.315Z,64.66
2023-01-29T23:35:16.816Z,64.42
2023-01-29T23:37:43.631Z,64.93
2023-01-29T23:40:10.879Z,65.21
2023-01-29T23:42:38.994Z,64.25
2023-01-29T23:45:06.215Z,64.16
2023-01-29T23:47:32.721Z,63.85
2023-01-29T23:49:59.600Z,64.04
2023-01-29T23:52:26.246Z,63.75
2023-01-29T23:54:53.999Z,62.30
2023-01-29T23:57:20.479Z,63.62
2023-01-29T23:59:47.024Z,63.81
